Time;durP1;ratioP1;P1;durP2;ratioP2;P2;SDS_P1;SDS_P2;PMS_P1;PMS_P2;Temp;Humidity;BMP_temperature;BMP_pressure;BME280_temperature;BME280_humidity;BME280_pressure;Samples;Min_cycle;Max_cycle;Signal;HPM_P1;HPM_P2
2021/12/16 00:09:26;;;;;;;27.63;14.68;;;;;;;-0.65;77.62;96180.16;5006825;28;20111;-78
2021/12/16 00:31:16;;;;;;;16.60;10.55;;;;;;;-0.80;75.72;96137.94;5006508;28;20036;-72
2021/12/16 00:33:42;;;;;;;24.60;14.65;;;;;;;-0.58;76.70;96180.13;5006441;28;20157;-73
2021/12/16 00:36:10;;;;;;;24.00;13.38;;;;;;;-1.02;76.81;96117.66;5005828;28;20034;-74
2021/12/16 00:38:38;;;;;;;26.38;14.60;;;;;;;-0.83;76.60;96148.06;5005993;28;20528;-71
2021/12/16 00:41:04;;;;;;;24.17;11.77;;;;;;;-0.48;75.94;96185.19;4989588;28;20497;-76
2021/12/16 00:43:47;;;;;;;25.08;13.48;;;;;;;-0.73;76.01;96152.28;5006169;28;20072;-73
2021/12/16 00:54:10;;;;;;;25.73;15.82;;;;;;;-0.48;75.94;96195.34;4989402;28;20037;-75
2021/12/16 00:56:41;;;;;;;21.08;13.13;;;;;;;-0.69;76.21;96156.47;5020220;28;20038;-73
2021/12/16 00:59:10;;;;;;;29.00;15.52;;;;;;;-0.95;76.12;96129.50;4989206;28;20033;-75
2021/12/16 01:34:37;;;;;;;27.92;15.45;;;;;;;-0.32;75.24;96164.03;4989067;28;20101;-74
2021/12/16 01:42:30;;;;;;;23.35;13.45;;;;;;;-0.56;75.95;96137.91;4988742;28;20156;-74
2021/12/16 01:50:15;;;;;;;25.63;15.27;;;;;;;-0.51;76.12;96148.03;4987969;28;20061;-71
2021/12/16 01:55:31;;;;;;;23.88;13.35;;;;;;;-0.49;76.37;96141.28;4988648;28;20355;-71
2021/12/16 01:58:09;;;;;;;22.38;12.23;;;;;;;-0.66;75.42;96099.91;5019425;28;20107;-75
2021/12/16 02:01:10;;;;;;;19.75;11.75;;;;;;;-0.38;75.67;96147.19;4990278;28;20509;-71
2021/12/16 02:03:43;;;;;;;21.90;13.13;;;;;;;-0.45;75.40;96119.31;4992165;28;20019;-73
2021/12/16 02:08:47;;;;;;;22.05;13.82;;;;;;;-0.27;74.74;96111.66;4992112;28;20154;-73
2021/12/16 02:11:25;;;;;;;26.25;13.65;;;;;;;-0.09;75.01;96138.63;4992164;28;20093;-71
2021/12/16 02:28:11;;;;;;;23.52;12.43;;;;;;;0.03;74.09;96121.69;4991768;28;20053;-70
2021/12/16 02:36:15;;;;;;;17.73;11.93;;;;;;;0.21;74.43;96146.13;4991328;28;20066;-74
2021/12/16 02:38:43;;;;;;;15.43;9.82;;;;;;;-0.11;74.74;96096.41;4991340;28;20054;-72
2021/12/16 02:41:10;;;;;;;21.25;12.45;;;;;;;0.23;74.65;96137.69;4991283;28;20072;-70
2021/12/16 02:44:06;;;;;;;21.38;11.95;;;;;;;-0.10;74.55;96096.41;4991321;28;20030;-69
2021/12/16 02:49:08;;;;;;;18.00;12.57;;;;;;;0.04;74.23;96119.16;4991273;28;20037;-71
2021/12/16 02:51:34;;;;;;;19.17;10.55;;;;;;;0.04;75.01;96118.31;4991248;28;20062;-70
2021/12/16 02:54:05;;;;;;;18.60;11.63;;;;;;;0.06;73.98;96107.28;4991287;28;20026;-74
2021/12/16 02:56:31;;;;;;;22.47;12.03;;;;;;;0.08;74.07;96100.53;4991363;28;20050;-71
2021/12/16 02:58:57;;;;;;;20.85;12.40;;;;;;;0.30;74.58;96143.56;4991545;28;20458;-73
2021/12/16 03:01:45;;;;;;;25.25;13.18;;;;;;;0.29;74.07;96139.31;4990757;28;20109;-72
2021/12/16 03:04:14;;;;;;;22.13;13.95;;;;;;;0.33;74.59;96144.38;4991013;28;20081;-72
2021/12/16 03:06:42;;;;;;;21.60;12.07;;;;;;;0.21;74.33;96118.22;4990988;28;20116;-70
2021/12/16 03:09:11;;;;;;;22.08;13.73;;;;;;;0.42;74.04;96140.94;5022457;28;20457;-71
2021/12/16 03:14:30;;;;;;;18.35;10.40;;;;;;;0.41;73.97;96143.50;4990669;28;20529;-70
2021/12/16 03:20:06;;;;;;;21.17;12.38;;;;;;;0.32;74.04;96119.03;4988207;28;20041;-70
2021/12/16 03:23:05;;;;;;;15.68;9.23;;;;;;;0.32;74.45;96124.94;4987911;28;20065;-75
2021/12/16 03:38:46;;;;;;;19.30;12.48;;;;;;;0.61;73.91;96148.44;4910996;29;20044;-69
2021/12/16 03:41:12;;;;;;;20.40;12.18;;;;;;;0.58;73.92;96156.94;4911101;29;20035;-71
2021/12/16 03:43:39;;;;;;;22.65;14.18;;;;;;;0.60;74.09;96151.84;4911080;29;20044;-70
2021/12/16 03:48:51;;;;;;;19.02;11.63;;;;;;;0.70;73.64;96146.69;4910177;29;20048;-71
2021/12/16 03:51:26;;;;;;;19.48;10.70;;;;;;;0.63;73.62;96151.84;4910573;29;20244;-70
2021/12/16 03:54:00;;;;;;;19.88;11.23;;;;;;;0.35;73.49;96108.84;4910940;29;20028;-72
2021/12/16 03:56:26;;;;;;;22.35;13.10;;;;;;;0.28;73.97;96091.97;4921323;29;20039;-75
2021/12/16 03:58:51;;;;;;;20.40;11.50;;;;;;;0.66;73.91;96155.22;4929936;29;20114;-68
2021/12/16 04:01:21;;;;;;;19.08;10.40;;;;;;;0.52;74.14;96134.97;4929960;29;20178;-71
2021/12/16 04:03:49;;;;;;;20.52;12.15;;;;;;;0.58;73.73;96138.34;4929794;29;20527;-70
2021/12/16 04:06:17;;;;;;;20.70;13.15;;;;;;;0.23;73.85;96078.47;4981439;28;20268;-70
2021/12/16 04:08:42;;;;;;;19.55;12.85;;;;;;;0.69;73.58;96141.66;4989736;28;20121;-68
2021/12/16 04:11:17;;;;;;;22.15;14.20;;;;;;;0.61;73.64;96129.00;4989846;28;20260;-70
2021/12/16 04:13:55;;;;;;;20.67;13.05;;;;;;;0.70;74.02;96138.25;4989625;28;20033;-66
2021/12/16 04:16:34;;;;;;;18.40;12.50;;;;;;;0.63;74.11;96137.44;4990001;28;20042;-69
2021/12/16 04:19:07;;;;;;;17.63;11.10;;;;;;;0.60;73.74;96118.84;4990084;28;20030;-70
2021/12/16 04:21:33;;;;;;;18.83;10.35;;;;;;;0.76;73.19;96143.28;5022847;28;20033;-69
2021/12/16 04:23:59;;;;;;;20.63;13.55;;;;;;;0.41;72.83;96087.66;5008718;28;20026;-68
2021/12/16 04:26:28;;;;;;;20.50;13.65;;;;;;;0.81;73.20;96139.03;5009499;28;20146;-72
2021/12/16 04:28:54;;;;;;;21.55;14.27;;;;;;;0.77;73.16;96134.84;5009889;28;20421;-69
2021/12/16 04:31:20;;;;;;;18.33;10.98;;;;;;;0.64;73.28;96110.34;5009948;28;20026;-70
2021/12/16 04:33:46;;;;;;;22.63;12.80;;;;;;;0.77;73.68;96134.84;5009394;28;20401;-70
2021/12/16 04:36:14;;;;;;;17.30;10.80;;;;;;;0.81;73.08;96123.78;5009547;28;20022;-72
2021/12/16 04:38:41;;;;;;;17.70;11.52;;;;;;;0.89;72.98;96129.66;5009981;28;20480;-74
2021/12/16 04:41:12;;;;;;;18.35;11.23;;;;;;;0.88;72.72;96127.97;5009303;28;20053;-69
2021/12/16 04:43:44;;;;;;;19.95;12.68;;;;;;;0.79;72.94;96112.81;5008117;28;20024;-73
2021/12/16 04:46:14;;;;;;;18.35;10.65;;;;;;;0.86;73.10;96127.13;5009398;28;20080;-72
2021/12/16 04:48:41;;;;;;;18.50;12.05;;;;;;;0.46;72.91;96033.50;5009006;28;20026;-69
2021/12/16 04:51:08;;;;;;;18.75;11.52;;;;;;;0.70;72.58;96098.47;5007539;28;20057;-68
2021/12/16 04:53:35;;;;;;;21.85;12.65;;;;;;;0.90;73.25;96127.94;5009606;28;20060;-70
2021/12/16 04:56:02;;;;;;;16.90;10.32;;;;;;;0.65;73.14;96081.59;5008956;28;20494;-67
2021/12/16 04:58:28;;;;;;;17.90;11.85;;;;;;;0.82;73.27;96106.84;5009016;28;20033;-71
2021/12/16 05:00:54;;;;;;;13.00;8.35;;;;;;;0.87;73.58;96128.84;5008352;28;20030;-69
2021/12/16 05:03:21;;;;;;;20.02;11.02;;;;;;;0.91;74.20;96140.63;5008568;28;20053;-72
2021/12/16 05:05:47;;;;;;;16.73;9.45;;;;;;;0.32;74.25;96043.72;5008638;28;20045;-67
2021/12/16 05:08:13;;;;;;;18.35;11.48;;;;;;;0.00;74.51;95983.09;5008572;28;20023;-70
2021/12/16 05:10:39;;;;;;;16.10;10.75;;;;;;;0.86;74.87;96127.13;5008616;28;20040;-68
2021/12/16 05:13:05;;;;;;;17.00;10.70;;;;;;;0.77;75.39;96114.53;5008338;28;20038;-68
2021/12/16 05:15:34;;;;;;;17.80;10.82;;;;;;;0.30;75.00;96039.53;5008522;28;20041;-68
2021/12/16 05:18:04;;;;;;;15.20;8.70;;;;;;;0.45;74.97;96074.94;5009030;28;20037;-70
2021/12/16 05:20:35;;;;;;;16.17;10.45;;;;;;;0.71;75.61;96115.41;5008686;28;20529;-68
2021/12/16 05:28:30;;;;;;;14.95;9.45;;;;;;;0.55;76.02;96112.09;5008985;28;20040;-67
2021/12/16 05:30:56;;;;;;;14.02;7.82;;;;;;;0.57;75.61;96127.31;5009125;28;20030;-71
2021/12/16 05:33:24;;;;;;;12.73;6.68;;;;;;;0.50;76.31;96133.31;5008991;28;20053;-70
2021/12/16 05:35:51;;;;;;;14.68;9.50;;;;;;;0.41;76.54;96110.50;5011718;28;20049;-71
2021/12/16 05:38:16;;;;;;;17.65;10.18;;;;;;;0.56;76.24;96107.88;5012749;28;20054;-69
2021/12/16 05:40:42;;;;;;;17.88;11.18;;;;;;;0.02;75.79;96032.09;5012828;28;20026;-72
2021/12/16 05:43:12;;;;;;;14.15;9.57;;;;;;;0.58;75.96;96106.19;5012886;28;20029;-70
2021/12/16 05:45:38;;;;;;;15.70;9.88;;;;;;;0.68;75.69;96127.28;5012580;28;20493;-68
2021/12/16 05:48:07;;;;;;;13.48;8.30;;;;;;;0.80;75.35;96129.72;5012295;28;20064;-68
2021/12/16 05:50:35;;;;;;;18.10;9.43;;;;;;;0.67;75.33;96121.34;5010059;28;20034;-70
2021/12/16 05:53:01;;;;;;;14.35;7.80;;;;;;;0.67;75.37;96106.13;5012062;28;20033;-67
2021/12/16 05:55:28;;;;;;;15.20;9.15;;;;;;;0.73;74.71;96121.28;5012731;28;20417;-70
2021/12/16 05:57:55;;;;;;;13.48;8.93;;;;;;;0.87;74.61;96127.97;5012623;28;20030;-74
2021/12/16 06:00:25;;;;;;;15.77;11.63;;;;;;;0.80;75.00;96132.25;5011929;28;20113;-68
2021/12/16 06:02:51;;;;;;;16.75;9.30;;;;;;;0.63;74.71;96093.47;5012495;28;20589;-72
2021/12/16 06:05:17;;;;;;;18.90;11.15;;;;;;;0.85;74.72;96119.53;5012134;28;20034;-70
2021/12/16 06:07:43;;;;;;;12.65;7.88;;;;;;;0.77;74.17;96109.44;5012014;28;20121;-70
2021/12/16 06:10:38;;;;;;;10.98;7.82;;;;;;;0.85;74.66;96139.84;5012560;28;20105;-65
2021/12/16 06:12:58;;;;;;;12.85;8.32;;;;;;;0.22;74.79;96043.81;5011639;28;20040;-68
2021/12/16 06:15:43;;;;;;;11.93;7.82;;;;;;;0.72;74.97;96141.63;5012109;28;20018;-77
2021/12/16 06:26:45;;;;;;;11.57;7.97;;;;;;;0.51;74.52;96105.38;5006221;28;20088;-53
2021/12/16 06:29:11;;;;;;;8.57;6.10;;;;;;;0.68;74.87;96133.19;5007761;28;20034;-55
2021/12/16 06:31:36;;;;;;;10.10;6.95;;;;;;;0.63;75.24;96108.69;5007933;28;20030;-56
2021/12/16 06:34:03;;;;;;;12.10;7.50;;;;;;;0.58;75.03;96116.34;5008274;28;20037;-58
2021/12/16 06:36:29;;;;;;;17.85;10.15;;;;;;;0.42;75.31;96089.34;5007501;28;20123;-63
2021/12/16 06:38:55;;;;;;;12.75;9.13;;;;;;;0.71;75.16;96120.47;5007802;28;20058;-57
2021/12/16 06:41:21;;;;;;;10.13;6.65;;;;;;;0.04;74.82;96019.41;5007774;28;20087;-57
2021/12/16 06:43:49;;;;;;;11.25;7.47;;;;;;;0.61;75.26;96107.84;5008252;28;20096;-55
2021/12/16 06:46:18;;;;;;;13.18;7.40;;;;;;;0.61;74.76;96102.75;5007409;28;20381;-61
2021/12/16 06:48:48;;;;;;;13.25;9.05;;;;;;;0.64;74.25;96095.13;5007766;28;20101;-62
2021/12/16 06:51:21;;;;;;;14.50;8.95;;;;;;;0.50;73.58;96063.06;5007381;28;20076;-60
2021/12/16 06:56:22;;;;;;;11.88;6.70;;;;;;;0.85;72.95;96095.00;5007471;28;20029;-64
2021/12/16 06:59:01;;;;;;;11.43;7.25;;;;;;;0.91;73.18;96115.25;5008027;28;20045;-65
2021/12/16 07:01:37;;;;;;;11.60;7.10;;;;;;;0.88;73.59;96120.34;5007347;28;20060;-63
2021/12/16 07:04:12;;;;;;;15.20;8.80;;;;;;;0.65;73.19;96079.06;5008086;28;20330;-62
2021/12/16 07:06:39;;;;;;;11.45;7.22;;;;;;;0.91;72.56;96115.25;5007439;28;20029;-64
2021/12/16 07:09:15;;;;;;;13.25;8.50;;;;;;;1.04;72.77;96125.31;5007734;28;20029;-62
2021/12/16 07:11:43;;;;;;;13.25;7.85;;;;;;;0.78;71.86;96090.81;5007529;28;20042;-64
2021/12/16 07:14:14;;;;;;;9.85;6.82;;;;;;;1.05;72.53;96132.06;5007135;28;20033;-65
2021/12/16 07:16:40;;;;;;;10.73;7.15;;;;;;;1.07;72.20;96125.31;5007234;28;20036;-62
2021/12/16 07:19:06;;;;;;;13.68;8.77;;;;;;;1.21;71.46;96115.00;5007196;28;20034;-63
2021/12/16 07:21:37;;;;;;;15.02;9.02;;;;;;;1.15;71.25;96094.72;5007395;28;20087;-63
2021/12/16 07:24:04;;;;;;;;;;;;;;;1.39;70.77;96121.63;5006928;28;20537;-63
2021/12/16 07:26:29;;;;;;;12.88;8.00;;;;;;;1.37;70.68;96123.34;5007201;28;20031;-64
2021/12/16 07:28:55;;;;;;;12.60;8.05;;;;;;;1.37;70.73;96133.50;5006395;28;20068;-65
2021/12/16 07:31:20;;;;;;;13.18;8.10;;;;;;;1.02;70.10;96063.53;5006856;28;20474;-66
2021/12/16 07:33:46;;;;;;;11.88;7.30;;;;;;;1.41;69.92;96114.81;5006328;28;20041;-65
2021/12/16 07:36:13;;;;;;;11.80;6.72;;;;;;;1.44;69.66;96102.09;5006714;28;20049;-64
2021/12/16 07:38:38;;;;;;;14.35;8.05;;;;;;;1.74;69.18;96130.59;5008902;28;20042;-67
2021/12/16 07:41:04;;;;;;;12.93;8.90;;;;;;;1.71;69.33;96128.94;5009710;28;20417;-66
2021/12/16 07:46:13;;;;;;;14.02;7.28;;;;;;;1.22;69.44;96069.25;5009653;28;20072;-65
2021/12/16 07:48:39;;;;;;;11.90;8.15;;;;;;;1.47;69.71;96123.22;5008426;28;20377;-64
2021/12/16 07:51:06;;;;;;;11.77;7.45;;;;;;;1.60;69.64;96131.59;5009319;28;20551;-64
2021/12/16 07:53:32;;;;;;;9.45;5.80;;;;;;;1.65;69.47;96129.00;5009605;28;20512;-65
2021/12/16 07:55:58;;;;;;;11.65;6.93;;;;;;;1.29;68.75;96059.88;5009672;28;20030;-67
2021/12/16 07:58:23;;;;;;;12.93;7.97;;;;;;;1.79;68.73;96132.25;5009016;28;20030;-63
2021/12/16 08:00:49;;;;;;;13.27;7.85;;;;;;;1.68;69.14;96133.22;5007546;28;20042;-65
2021/12/16 08:03:17;;;;;;;12.50;8.27;;;;;;;1.77;69.28;96128.88;5008351;28;20080;-65
2021/12/16 08:05:47;;;;;;;8.38;6.00;;;;;;;1.72;69.24;96139.94;5009602;28;20088;-65
2021/12/16 08:08:15;;;;;;;12.35;7.82;;;;;;;1.42;69.65;96096.19;5009711;28;20081;-66
2021/12/16 08:10:41;;;;;;;12.82;6.72;;;;;;;1.47;70.07;96135.94;5008193;28;20040;-64
2021/12/16 08:13:07;;;;;;;12.57;7.55;;;;;;;1.61;70.00;96112.09;5008888;28;20068;-64
2021/12/16 08:15:32;;;;;;;9.75;6.03;;;;;;;1.80;69.27;96145.78;5009621;28;20108;-65
2021/12/16 08:17:58;;;;;;;12.02;6.28;;;;;;;1.25;69.77;96048.91;5009180;28;20344;-67
2021/12/16 08:20:24;;;;;;;9.35;6.18;;;;;;;1.47;69.92;96072.38;5009180;28;20058;-66
2021/12/16 08:22:52;;;;;;;13.65;8.23;;;;;;;1.88;69.92;96136.38;5009571;28;20107;-68
2021/12/16 08:25:20;;;;;;;10.70;7.65;;;;;;;1.91;69.85;96131.25;5008956;28;20496;-67
2021/12/16 08:27:46;;;;;;;10.63;7.22;;;;;;;1.94;69.63;96128.69;5009598;28;20030;-65
2021/12/16 08:30:16;;;;;;;10.52;6.88;;;;;;;1.59;69.59;96068.03;5009146;28;20065;-66
2021/12/16 08:32:43;;;;;;;14.80;9.65;;;;;;;1.99;69.68;96136.28;5008862;28;20143;-67
2021/12/16 08:35:10;;;;;;;11.15;7.72;;;;;;;1.84;69.92;96116.94;5009305;28;20076;-68
2021/12/16 08:37:36;;;;;;;11.45;8.27;;;;;;;1.78;69.77;96104.28;5008767;28;20050;-67
2021/12/16 08:40:06;;;;;;;10.07;7.20;;;;;;;1.42;69.87;96045.34;5009060;28;20037;-66
2021/12/16 08:42:32;;;;;;;14.18;7.47;;;;;;;1.93;70.11;96138.88;5009428;28;20493;-64
2021/12/16 08:44:57;;;;;;;12.10;6.72;;;;;;;1.91;69.74;96122.78;5008755;28;20036;-67
2021/12/16 08:47:23;;;;;;;11.95;7.50;;;;;;;1.89;70.24;96127.06;5009039;28;20417;-64
2021/12/16 08:49:49;;;;;;;10.57;7.07;;;;;;;1.87;70.21;96137.25;5008668;28;20033;-68
2021/12/16 08:52:20;;;;;;;11.73;7.38;;;;;;;1.86;70.06;96122.84;5008687;28;20495;-64
2021/12/16 08:54:46;;;;;;;11.45;8.23;;;;;;;1.99;69.92;96126.94;5009098;28;20026;-65
2021/12/16 08:57:12;;;;;;;11.88;7.75;;;;;;;1.89;69.76;96110.09;5009409;28;20030;-68
2021/12/16 08:59:38;;;;;;;12.32;8.45;;;;;;;2.07;69.49;96120.94;5009210;28;20026;-65
2021/12/16 09:02:07;;;;;;;15.00;8.77;;;;;;;2.16;69.15;96126.72;5008157;28;20041;-65
2021/12/16 09:04:34;;;;;;;10.13;7.82;;;;;;;2.08;68.96;96120.88;5008504;28;20057;-64
2021/12/16 09:07:03;;;;;;;13.32;8.68;;;;;;;2.19;68.57;96103.78;5008742;28;20416;-67
2021/12/16 09:09:34;;;;;;;9.63;7.00;;;;;;;2.28;68.10;96105.38;5008323;28;20046;-66
2021/12/16 09:12:09;;;;;;;10.80;6.80;;;;;;;2.27;68.01;96103.69;5008117;28;20025;-65
2021/12/16 09:14:36;;;;;;;15.50;7.97;;;;;;;2.27;67.95;96108.78;5008718;28;20354;-64
2021/12/16 09:17:04;;;;;;;12.73;6.70;;;;;;;1.97;68.28;96062.50;5008279;28;20080;-63
2021/12/16 09:19:30;;;;;;;8.98;6.30;;;;;;;2.08;68.61;96100.53;5008116;28;20026;-65
2021/12/16 09:21:56;;;;;;;9.38;6.38;;;;;;;2.12;68.12;96104.72;5008682;28;20579;-65
2021/12/16 09:24:21;;;;;;;9.23;5.78;;;;;;;2.10;68.07;96111.53;5007484;28;20129;-68
2021/12/16 09:26:47;;;;;;;12.15;7.03;;;;;;;2.00;68.39;96090.47;5008057;28;20025;-65
2021/12/16 09:29:13;;;;;;;10.75;6.47;;;;;;;2.04;68.48;96098.06;5008139;28;20103;-65
2021/12/16 09:31:39;;;;;;;9.63;6.70;;;;;;;2.20;68.25;96090.19;5007996;28;20044;-64
2021/12/16 09:34:08;;;;;;;10.25;5.88;;;;;;;2.06;67.95;96078.53;5008108;28;20488;-64
2021/12/16 09:36:37;;;;;;;13.43;8.70;;;;;;;2.19;67.75;96062.22;5007654;28;20034;-66
2021/12/16 09:39:05;;;;;;;7.20;5.30;;;;;;;2.42;67.19;96087.38;5008693;28;20057;-66
2021/12/16 09:41:31;;;;;;;11.38;6.78;;;;;;;2.34;67.51;96091.72;5008120;28;20354;-68
2021/12/16 09:43:59;;;;;;;7.53;5.47;;;;;;;2.00;67.55;96052.31;5008115;28;20030;-64
2021/12/16 09:46:27;;;;;;;10.27;6.07;;;;;;;2.07;67.97;96083.59;5007518;28;20351;-65
2021/12/16 09:48:56;;;;;;;11.38;6.57;;;;;;;2.18;68.64;96079.22;5008234;28;20038;-65
2021/12/16 09:51:28;;;;;;;11.23;5.82;;;;;;;2.17;68.33;96099.59;5008238;28;20022;-64
2021/12/16 09:53:58;;;;;;;9.65;6.05;;;;;;;2.31;68.09;96077.34;5008128;28;20548;-67
2021/12/16 09:56:26;;;;;;;9.82;7.03;;;;;;;2.32;68.17;96078.19;5007879;28;20080;-69
2021/12/16 09:58:55;;;;;;;7.00;5.05;;;;;;;2.24;68.06;96087.63;5007840;28;20052;-68
2021/12/16 10:01:23;;;;;;;7.45;5.38;;;;;;;1.99;69.11;96072.66;5007566;28;20034;-66
2021/12/16 10:03:52;;;;;;;10.63;5.25;;;;;;;2.23;68.45;96089.34;5008032;28;20029;-64
2021/12/16 10:06:18;;;;;;;8.57;5.18;;;;;;;2.23;68.89;96085.94;5006436;28;20414;-68
2021/12/16 10:08:44;;;;;;;9.07;5.97;;;;;;;2.22;68.70;96054.56;5007561;28;20037;-67
2021/12/16 10:11:10;;;;;;;9.82;6.07;;;;;;;2.37;68.17;96064.50;5007303;28;20129;-63
2021/12/16 10:13:46;;;;;;;10.00;5.93;;;;;;;2.20;68.26;96028.28;5007316;28;20037;-66
2021/12/16 10:18:56;;;;;;;7.65;4.28;;;;;;;2.36;68.32;96039.94;5007791;28;20048;-66
2021/12/16 10:21:23;;;;;;;8.13;6.00;;;;;;;2.35;68.47;96062.88;5007827;28;20045;-67
2021/12/16 10:23:48;;;;;;;7.82;5.15;;;;;;;2.23;69.07;96053.69;5010919;28;20033;-65
2021/12/16 10:26:24;;;;;;;8.63;5.22;;;;;;;2.35;68.77;96047.59;5010966;28;20516;-68
2021/12/16 10:28:56;;;;;;;8.13;5.43;;;;;;;2.16;68.54;96019.00;5010918;28;20547;-68
2021/12/16 10:31:26;;;;;;;;;;;;;;;2.35;68.62;96040.78;5011755;28;20042;-67
2021/12/16 10:34:05;;;;;;;8.15;4.55;;;;;;;2.15;69.32;96048.72;5009894;28;19913;-68
2021/12/16 10:36:42;;;;;;;11.23;6.50;;;;;;;2.12;69.87;96032.66;5011099;28;20034;-66
2021/12/16 10:39:16;;;;;;;11.18;7.03;;;;;;;2.10;69.37;96007.22;5010523;28;20049;-65
2021/12/16 10:41:52;;;;;;;9.18;6.53;;;;;;;2.34;69.41;96041.63;5010424;28;20030;-65
2021/12/16 10:44:27;;;;;;;12.23;5.97;;;;;;;2.22;68.67;96013.84;5010820;28;20041;-65
2021/12/16 10:47:00;;;;;;;9.05;6.07;;;;;;;2.32;68.99;96024.72;5010621;28;20029;-66
2021/12/16 10:49:38;;;;;;;11.82;7.00;;;;;;;2.29;69.00;96030.69;5010450;28;20229;-65
2021/12/16 10:52:11;;;;;;;9.85;6.35;;;;;;;2.23;69.26;96030.81;5010583;28;20092;-66
2021/12/16 10:54:48;;;;;;;9.07;5.63;;;;;;;2.30;69.17;96031.56;5010699;28;20351;-67
2021/12/16 10:57:21;;;;;;;8.48;6.03;;;;;;;2.23;69.26;96020.63;5010213;28;20026;-64
2021/12/16 11:00:11;;;;;;;13.30;7.18;;;;;;;2.19;69.55;96007.06;5009254;28;20429;-68
2021/12/16 11:02:39;;;;;;;11.30;7.22;;;;;;;2.35;69.19;96032.31;5010480;28;20064;-67
2021/12/16 11:05:22;;;;;;;9.18;5.20;;;;;;;1.63;69.43;95960.38;5010073;28;20033;-67
2021/12/16 11:07:54;;;;;;;8.98;5.93;;;;;;;1.95;69.43;95961.63;5010197;28;20966;-67
2021/12/16 11:10:21;;;;;;;11.95;7.57;;;;;;;2.32;68.91;96000.09;5010281;28;20036;-66
2021/12/16 11:13:02;;;;;;;9.57;7.07;;;;;;;2.51;68.05;96002.34;5009997;28;20124;-65
2021/12/16 11:15:43;;;;;;;11.90;7.00;;;;;;;2.41;68.14;95995.75;5010521;28;20041;-68
2021/12/16 11:18:13;;;;;;;13.82;8.20;;;;;;;2.54;68.58;96018.47;5010210;28;20084;-66
2021/12/16 11:20:41;;;;;;;14.60;8.18;;;;;;;2.50;68.29;96010.88;5010396;28;20034;-65
2021/12/16 11:23:17;;;;;;;12.27;8.13;;;;;;;2.56;68.34;95998.06;5010079;28;20030;-64
2021/12/16 11:25:46;;;;;;;12.05;7.05;;;;;;;2.40;68.78;96007.63;5009833;28;20105;-67
2021/12/16 11:28:14;;;;;;;8.88;6.75;;;;;;;2.51;68.38;96007.44;5010510;28;20417;-63
2021/12/16 11:30:49;;;;;;;12.07;8.68;;;;;;;2.40;68.14;95974.53;5009810;28;20045;-66
2021/12/16 11:33:38;;;;;;;18.10;10.43;;;;;;;2.68;68.08;96010.59;5008325;28;20380;-67
2021/12/16 11:36:23;;;;;;;10.15;6.55;;;;;;;2.69;67.09;96004.63;5008662;28;20034;-68
2021/12/16 11:39:02;;;;;;;9.55;6.28;;;;;;;1.92;68.47;95959.13;5009883;28;20569;-64
2021/12/16 11:41:29;;;;;;;15.05;8.38;;;;;;;2.44;68.62;96010.97;5010193;28;20044;-65
2021/12/16 11:43:58;;;;;;;10.45;7.60;;;;;;;2.51;68.23;96015.09;5010054;28;20069;-65
2021/12/16 11:46:30;;;;;;;14.20;9.10;;;;;;;2.25;68.22;95950.16;5009883;28;20114;-67
2021/12/16 11:49:03;;;;;;;13.50;9.27;;;;;;;2.68;68.23;96014.84;5009225;28;20030;-66
2021/12/16 11:51:45;;;;;;;11.23;8.00;;;;;;;2.70;67.96;96008.00;5008689;28;20409;-68
2021/12/16 11:54:16;;;;;;;12.32;7.60;;;;;;;2.62;67.48;96007.28;5009922;28;20029;-65
2021/12/16 11:56:45;;;;;;;13.85;7.00;;;;;;;2.46;67.81;96002.47;5009496;28;20052;-67
2021/12/16 11:59:11;;;;;;;10.05;6.60;;;;;;;2.37;68.66;95995.78;5009704;28;20145;-69
2021/12/16 12:01:39;;;;;;;10.75;7.75;;;;;;;2.23;68.75;95995.16;5009042;28;20482;-66
2021/12/16 12:04:10;;;;;;;11.15;7.43;;;;;;;2.29;68.78;95989.13;5009192;28;20500;-65
2021/12/16 12:06:37;;;;;;;9.90;6.43;;;;;;;2.36;68.79;95991.56;5009379;28;20034;-64
2021/12/16 12:09:07;;;;;;;11.00;7.38;;;;;;;2.20;68.79;95950.22;5009399;28;20022;-68
2021/12/16 12:11:36;;;;;;;15.93;8.95;;;;;;;2.55;68.66;95991.28;5009237;28;20030;-66
2021/12/16 12:14:09;;;;;;;12.73;9.32;;;;;;;2.51;68.52;95975.22;5008717;28;20117;-67
2021/12/16 12:16:37;;;;;;;14.52;10.45;;;;;;;2.66;68.43;95994.50;5009782;28;20026;-67
2021/12/16 12:19:14;;;;;;;14.50;7.97;;;;;;;2.62;67.81;95997.94;5009399;28;20112;-69
2021/12/16 12:21:44;;;;;;;12.63;8.80;;;;;;;2.57;68.16;95998.03;5009040;28;20033;-69
2021/12/16 12:24:18;;;;;;;14.10;9.57;;;;;;;2.45;68.61;95982.94;5008388;28;20396;-66
2021/12/16 12:26:56;;;;;;;16.45;9.15;;;;;;;2.58;68.68;95991.22;5009515;28;20157;-66
2021/12/16 12:29:29;;;;;;;14.70;9.77;;;;;;;2.37;68.34;95949.97;5008982;28;20026;-65
2021/12/16 12:32:02;;;;;;;19.17;11.40;;;;;;;2.73;68.31;95995.22;5009423;28;20297;-66
2021/12/16 12:34:29;;;;;;;17.65;12.02;;;;;;;2.36;68.37;95938.13;5009370;28;20100;-67
2021/12/16 12:36:58;;;;;;;15.80;9.90;;;;;;;2.45;68.07;95941.38;5008567;28;20103;-65
2021/12/16 12:39:32;;;;;;;16.98;10.60;;;;;;;2.86;68.28;96000.97;5008670;28;20366;-66
2021/12/16 12:49:37;;;;;;;16.52;9.52;;;;;;;2.84;67.31;96003.53;4928098;29;20035;-65
2021/12/16 12:52:51;;;;;;;14.27;8.00;;;;;;;2.61;68.15;96013.25;4888277;29;20060;-65
2021/12/16 12:59:47;;;;;;;15.18;8.57;;;;;;;2.34;69.06;95992.44;5120195;27;20398;-67
2021/12/16 13:06:40;;;;;;;;;;;;;;;;;;;;;
2021/12/16 13:09:43;;;;;;;12.95;9.45;;;;;;;2.08;70.10;95990.28;4875265;29;20045;-67
2021/12/16 13:12:40;;;;;;;14.63;9.05;;;;;;;2.01;69.74;95964.91;4813542;29;20134;-65
2021/12/16 13:23:58;;;;;;;11.65;8.60;;;;;;;2.55;68.65;96001.47;4813693;29;20497;-64
2021/12/16 13:26:40;;;;;;;16.88;10.60;;;;;;;2.41;68.35;95967.72;4813626;29;20054;-66
2021/12/16 13:29:20;;;;;;;16.27;10.13;;;;;;;2.35;68.42;95963.59;4814066;29;20042;-66
2021/12/16 13:32:07;;;;;;;15.45;10.23;;;;;;;2.50;69.03;95990.50;4813947;29;20049;-66
2021/12/16 13:34:41;;;;;;;13.55;9.60;;;;;;;2.39;68.86;96004.25;4813954;29;20125;-65
2021/12/16 13:37:22;;;;;;;19.60;12.65;;;;;;;2.40;69.39;95989.81;4746687;29;20155;-65
2021/12/16 13:39:50;;;;;;;;;;;;;;;2.34;69.41;95993.28;4753971;30;20191;-67
2021/12/16 13:42:18;;;;;;;15.65;11.55;;;;;;;2.17;69.32;95965.53;4807067;29;19921;-65
2021/12/16 13:44:58;;;;;;;15.18;10.15;;;;;;;2.29;69.06;95981.50;4829454;29;20115;-63
2021/12/16 13:47:48;;;;;;;19.90;12.38;;;;;;;2.29;69.48;95996.78;4924818;29;20431;-66
2021/12/16 14:05:15;;;;;;;18.55;11.55;;;;;;;2.00;69.81;95958.16;5001800;28;20045;-68
2021/12/16 14:07:57;;;;;;;16.63;9.50;;;;;;;2.25;68.93;95998.53;5001170;28;20485;-67
2021/12/16 14:11:25;;;;;;;;;;;;;;;;;;;;;
2021/12/16 14:42:25;;;;;;;21.15;13.55;;;;;;;1.87;70.35;96022.78;4949712;29;20055;-64
2021/12/16 14:50:11;;;;;;;19.42;12.25;;;;;;;1.96;69.56;96022.66;4970697;28;20092;-66
2021/12/16 14:52:36;;;;;;;16.85;11.68;;;;;;;1.97;69.38;96021.81;5010526;28;20030;-65
2021/12/16 14:55:13;;;;;;;15.10;9.13;;;;;;;1.76;69.14;96009.38;5010108;28;20104;-66
2021/12/16 14:57:44;;;;;;;18.23;11.65;;;;;;;1.96;69.34;96020.13;5009635;28;20050;-66
2021/12/16 15:00:16;;;;;;;;;;;;;;;1.98;69.44;96023.50;5010012;28;20833;-66
2021/12/16 15:02:45;;;;;;;18.58;11.25;;;;;;;1.97;69.26;96020.97;5009699;28;20392;-66
2021/12/16 15:05:48;;;;;;;16.55;11.20;;;;;;;2.00;69.34;96026.84;5009705;28;20034;-64
2021/12/16 15:08:23;;;;;;;17.15;10.68;;;;;;;1.98;68.55;96017.56;5009150;28;20049;-67
2021/12/16 15:10:49;;;;;;;18.90;11.07;;;;;;;1.94;69.11;96010.84;5009678;28;20022;-65
2021/12/16 15:13:23;;;;;;;15.68;10.52;;;;;;;1.72;68.73;95978.06;5009036;28;20162;-66
2021/12/16 15:43:08;;;;;;;21.17;13.13;;;;;;;1.29;69.29;95928.56;5045804;28;20097;-69
2021/12/16 15:45:44;;;;;;;18.88;12.85;;;;;;;2.07;69.40;96053.06;5046202;28;20587;-69
2021/12/16 15:48:15;;;;;;;14.95;10.05;;;;;;;2.03;69.28;96051.41;5045716;28;20071;-69
2021/12/16 15:50:44;;;;;;;20.02;12.82;;;;;;;2.00;69.66;96049.75;5046094;28;20032;-68
2021/12/16 15:53:14;;;;;;;21.38;13.98;;;;;;;1.97;69.41;96048.97;5045566;28;20399;-66
2021/12/16 15:55:44;;;;;;;20.08;13.50;;;;;;;1.83;69.77;96039.78;5045775;28;20049;-69
2021/12/16 15:58:20;;;;;;;22.45;14.02;;;;;;;1.64;69.50;95992.53;5044962;28;20083;-68
2021/12/16 16:00:50;;;;;;;24.52;17.10;;;;;;;2.02;69.75;96052.28;5037459;28;20080;-68
2021/12/16 16:03:17;;;;;;;21.15;13.13;;;;;;;1.82;69.46;96030.47;5028286;28;20030;-66